• Join FlightAware (Why Join?)
  • Login
  • US Flag 
11:44AM EST


 

Airport Tracker/Info


-or-


 

Live Flight TrackerFlight Track Log ✈ GLA63P ✈ 03-May-2013 ✈ KPRC - KCNY

Flight Track Log - Related Links

Times and Time Zones

All times are in EDT time to prevent confusion due to time zone crossing. See the GLA63P flight status page for this flight to view local times or setup timezone preferences in your user account.

Time Position Orientation Groundspeed Altitude Reporting Facility
EDT Latitude Longitude Course Direction KTS MPH feet Rate Location/Type
08:22AM 34.6631 -112.4744 North 164 189 8,100  Level Los Angeles Center
08:23AM 34.7086 -112.4850 349° North 167 192 10,000 1,500 Climbing Los Angeles Center
08:24AM 34.7639 -112.4764 North 189 217 11,200 1,380 Climbing Los Angeles Center
08:25AM 34.8247 -112.4731 North 213 245 12,800 1,440 Climbing Los Angeles Center
08:26AM 34.8861 -112.4725 360° North 221 254 14,100 1,320 Climbing Los Angeles Center
08:27AM 34.9951 -112.4572 North  Level FlightAware Approximate
08:27AM 34.9619 -112.4669 North 226 260 15,600  Level Albuquerque Center
08:28AM 35.0261 -112.4603 North 230 265 16,800 1,020 Climbing Albuquerque Center
08:29AM 35.0894 -112.4489 North 231 266 17,700 780 Climbing Albuquerque Center
08:30AM 35.1539 -112.4489 360° North 233 268 18,400 720 Climbing Albuquerque Center
08:31AM 35.2186 -112.4536 357° North 233 268 19,200 720 Climbing Albuquerque Center
08:32AM 35.2856 -112.4469 North 239 275 19,900 600 Climbing Albuquerque Center
08:33AM 35.3525 -112.4350 North 243 280 20,500 600 Climbing Albuquerque Center
08:34AM 35.4206 -112.4322 North 244 281 21,100 600 Climbing Los Angeles Center
08:35AM 35.4881 -112.4269 North 245 282 21,700 420 Climbing Los Angeles Center
08:36AM 35.5556 -112.4181 North 245 282 22,000 120 Climbing Los Angeles Center
08:37AM 35.6222 -112.3919 18° North 263 303 22,000  Level Los Angeles Center
08:38AM 35.6842 -112.3386 35° Northeast 275 316 22,000  Level Los Angeles Center
08:39AM 35.7475 -112.2894 32° Northeast 272 313 22,000  Level Los Angeles Center
08:40AM 35.8144 -112.2528 24° Northeast 265 305 22,000  Level Los Angeles Center
08:41AM 35.8769 -112.2072 31° Northeast 265 305 22,000  Level Los Angeles Center
08:42AM 35.9353 -112.1503 38° Northeast 268 308 22,000  Level Los Angeles Center
08:43AM 35.9978 -112.1025 32° Northeast 266 306 22,000  Level Los Angeles Center
08:44AM 36.0619 -112.0569 30° Northeast 266 306 22,000  Level Los Angeles Center
08:45AM 36.1267 -112.0131 29° Northeast 266 306 22,000  Level Los Angeles Center
08:46AM 36.2058 -111.9683 25° Northeast 265 305 22,000  Level Los Angeles Center
08:47AM 36.2689 -111.9172 33° Northeast 269 310 22,100  Climbing Los Angeles Center
08:48AM 36.3300 -111.8622 36° Northeast 272 313 22,100 -60 Level Los Angeles Center
08:49AM 36.3953 -111.8217 27° Northeast 270 311 22,000 -60 Descending Denver Center
08:50AM 36.4597 -111.7747 30° Northeast 269 310 22,000  Level Denver Center
08:51AM 36.5219 -111.7225 34° Northeast 270 311 22,000  Level Denver Center
08:52AM 36.5878 -111.6767 29° Northeast 271 312 22,000  Level Denver Center
08:53AM 36.6539 -111.6267 31° Northeast 276 318 22,000  Level Denver Center
08:54AM 36.7175 -111.5767 32° Northeast 274 315 22,100  Climbing Denver Center
08:55AM 36.7975 -111.5194 30° Northeast 276 318 22,000 -60 Descending Denver Center
08:56AM 36.8631 -111.4722 30° Northeast 275 316 22,000  Level Denver Center
08:57AM 36.9303 -111.4253 29° Northeast 277 319 22,000  Level Denver Center
08:58AM 36.9978 -111.3822 27° Northeast 275 316 22,000  Level Denver Center
08:59AM 37.0592 -111.3333 32° Northeast 270 311 22,000  Level Denver Center
09:00AM 37.1247 -111.2833 31° Northeast 276 318 22,000  Level Denver Center
09:01AM 37.1917 -111.2356 30° Northeast 277 319 22,000  Level Denver Center
09:02AM 37.2578 -111.1881 30° Northeast 276 318 22,000  Level Denver Center
09:03AM 37.3244 -111.1411 29° Northeast 275 316 22,000  Level Denver Center
09:04AM 37.3764 -111.0975 34° Northeast 280 322 22,000  Level Denver Center
09:05AM 37.4553 -111.0378 31° Northeast 277 319 22,000  Level Denver Center
09:06AM 37.5333 -110.9758 32° Northeast 276 318 22,000  Level Denver Center
09:07AM 37.5981 -110.9250 32° Northeast 275 316 22,000  Level Denver Center
09:08AM 37.6658 -110.8778 29° Northeast 277 319 22,000  Level Denver Center
09:09AM 37.7161 -110.8342 34° Northeast 277 319 22,000  Level Denver Center
09:10AM 37.7628 -110.7853 40° Northeast 274 315 22,000  Level Denver Center
09:11AM 37.8250 -110.7261 37° Northeast 280 322 22,000  Level Denver Center
09:12AM 37.8844 -110.6631 40° Northeast 281 323 22,100  Climbing Denver Center
09:13AM 37.9444 -110.6042 38° Northeast 274 315 22,000 -60 Descending Denver Center
09:14AM 38.0047 -110.5431 39° Northeast 277 319 22,000  Level Denver Center
09:15AM 38.0675 -110.4850 36° Northeast 278 320 22,000 -120 Level Denver Center
09:16AM 38.1303 -110.4111 43° Northeast 278 320 21,800 -600 Descending Denver Center
09:17AM 38.1881 -110.3544 38° Northeast 275 316 20,900 -840 Descending Denver Center
09:18AM 38.2444 -110.2939 40° Northeast 278 320 20,200 -840 Descending Denver Center
09:19AM 38.3097 -110.2269 39° Northeast 270 311 19,200 -1,140 Descending Denver Center
09:20AM 38.3644 -110.1700 39° Northeast 268 308 18,000 -960 Descending Denver Center
09:21AM 38.4014 -110.1306 40° Northeast 269 310 17,600 -1,320 Descending Salt Lake Center
09:21AM 38.4286 -110.0989 42° Northeast 270 311 16,700 -1,440 Descending Denver Center
09:22AM 38.4864 -110.0403 38° Northeast 275 316 15,700 -1,380 Descending Denver Center
09:23AM 38.5425 -109.9828 39° Northeast 272 313 13,900 -2,340 Descending Denver Center
09:24AM 38.6067 -109.9108 41° Northeast 273 314 11,000 -2,760 Descending Denver Center
09:25AM 38.6589 -109.8550 40° Northeast 265 305 8,400 -2,460 Descending Denver Center
09:26AM 38.7017 -109.8097 40° Northeast 228 262 6,100 -1,380 Descending Denver Center
09:27AM 38.7361 -109.7750 38° Northeast 201 231 5,600 -540 Descending Denver Center